sensor_id;sensor_type;location;lat;lon;timestamp;P1;durP1;ratioP1;P2;durP2;ratioP2
46407;SDS011;32110;45.724;21.276;2023-05-10T00:01:14;13.43;;;8.70;;
46407;SDS011;32110;45.724;21.276;2023-05-10T00:03:39;13.32;;;8.73;;
46407;SDS011;32110;45.724;21.276;2023-05-10T00:06:05;15.05;;;9.00;;
46407;SDS011;32110;45.724;21.276;2023-05-10T00:08:30;13.85;;;8.70;;
46407;SDS011;32110;45.724;21.276;2023-05-10T00:10:56;14.50;;;8.75;;
46407;SDS011;32110;45.724;21.276;2023-05-10T00:13:21;13.37;;;8.80;;
46407;SDS011;32110;45.724;21.276;2023-05-10T00:15:46;16.30;;;8.52;;
46407;SDS011;32110;45.724;21.276;2023-05-10T00:18:12;15.40;;;8.67;;
46407;SDS011;32110;45.724;21.276;2023-05-10T00:20:37;13.13;;;8.00;;
46407;SDS011;32110;45.724;21.276;2023-05-10T00:23:02;13.63;;;8.47;;
46407;SDS011;32110;45.724;21.276;2023-05-10T00:25:27;15.13;;;8.53;;
46407;SDS011;32110;45.724;21.276;2023-05-10T00:27:53;15.40;;;9.18;;
46407;SDS011;32110;45.724;21.276;2023-05-10T00:30:20;13.40;;;7.95;;
46407;SDS011;32110;45.724;21.276;2023-05-10T00:32:45;15.85;;;8.60;;
46407;SDS011;32110;45.724;21.276;2023-05-10T00:35:10;13.67;;;8.40;;
46407;SDS011;32110;45.724;21.276;2023-05-10T00:37:36;15.35;;;8.57;;
46407;SDS011;32110;45.724;21.276;2023-05-10T00:40:01;13.60;;;7.93;;
46407;SDS011;32110;45.724;21.276;2023-05-10T00:42:26;13.97;;;8.13;;
46407;SDS011;32110;45.724;21.276;2023-05-10T00:44:51;13.07;;;8.10;;
46407;SDS011;32110;45.724;21.276;2023-05-10T00:47:17;12.02;;;8.10;;
46407;SDS011;32110;45.724;21.276;2023-05-10T00:49:42;13.73;;;7.70;;
46407;SDS011;32110;45.724;21.276;2023-05-10T00:52:08;14.38;;;7.63;;
46407;SDS011;32110;45.724;21.276;2023-05-10T00:54:33;10.90;;;7.20;;
46407;SDS011;32110;45.724;21.276;2023-05-10T00:56:59;14.35;;;7.53;;
46407;SDS011;32110;45.724;21.276;2023-05-10T00:59:24;15.27;;;7.82;;
46407;SDS011;32110;45.724;21.276;2023-05-10T01:01:50;11.32;;;7.07;;
46407;SDS011;32110;45.724;21.276;2023-05-10T01:04:16;12.18;;;7.25;;
46407;SDS011;32110;45.724;21.276;2023-05-10T01:06:42;9.98;;;6.65;;
46407;SDS011;32110;45.724;21.276;2023-05-10T01:09:07;12.38;;;6.90;;
46407;SDS011;32110;45.724;21.276;2023-05-10T01:11:33;10.68;;;6.90;;
46407;SDS011;32110;45.724;21.276;2023-05-10T01:13:59;11.18;;;6.95;;
46407;SDS011;32110;45.724;21.276;2023-05-10T01:16:25;10.15;;;6.65;;
46407;SDS011;32110;45.724;21.276;2023-05-10T01:18:51;11.43;;;6.53;;
46407;SDS011;32110;45.724;21.276;2023-05-10T01:21:19;12.25;;;6.88;;
46407;SDS011;32110;45.724;21.276;2023-05-10T01:33:35;13.13;;;6.25;;
46407;SDS011;32110;45.724;21.276;2023-05-10T01:36:15;10.40;;;6.00;;
46407;SDS011;32110;45.724;21.276;2023-05-10T01:38:50;8.55;;;5.95;;
46407;SDS011;32110;45.724;21.276;2023-05-10T01:46:20;8.13;;;5.50;;
46407;SDS011;32110;45.724;21.276;2023-05-10T01:48:48;9.75;;;5.80;;
46407;SDS011;32110;45.724;21.276;2023-05-10T01:51:17;13.05;;;6.05;;
46407;SDS011;32110;45.724;21.276;2023-05-10T01:53:44;11.68;;;5.80;;
46407;SDS011;32110;45.724;21.276;2023-05-10T01:56:10;10.55;;;5.70;;
46407;SDS011;32110;45.724;21.276;2023-05-10T01:58:36;9.00;;;5.70;;
46407;SDS011;32110;45.724;21.276;2023-05-10T02:01:03;10.23;;;5.40;;
46407;SDS011;32110;45.724;21.276;2023-05-10T02:03:29;8.77;;;5.88;;
46407;SDS011;32110;45.724;21.276;2023-05-10T02:05:56;8.43;;;5.30;;
46407;SDS011;32110;45.724;21.276;2023-05-10T02:08:22;11.63;;;5.47;;
46407;SDS011;32110;45.724;21.276;2023-05-10T02:10:47;8.65;;;5.80;;
46407;SDS011;32110;45.724;21.276;2023-05-10T02:13:14;20.73;;;6.28;;
46407;SDS011;32110;45.724;21.276;2023-05-10T02:15:40;11.80;;;5.07;;
46407;SDS011;32110;45.724;21.276;2023-05-10T02:18:06;12.25;;;5.57;;
46407;SDS011;32110;45.724;21.276;2023-05-10T02:20:32;10.23;;;5.25;;
46407;SDS011;32110;45.724;21.276;2023-05-10T02:22:58;8.80;;;4.63;;
46407;SDS011;32110;45.724;21.276;2023-05-10T02:25:24;11.02;;;4.70;;
46407;SDS011;32110;45.724;21.276;2023-05-10T02:27:50;9.15;;;4.78;;
46407;SDS011;32110;45.724;21.276;2023-05-10T02:30:16;9.13;;;4.88;;
46407;SDS011;32110;45.724;21.276;2023-05-10T02:32:43;9.52;;;4.88;;
46407;SDS011;32110;45.724;21.276;2023-05-10T02:35:09;7.82;;;4.40;;
46407;SDS011;32110;45.724;21.276;2023-05-10T02:37:35;6.93;;;4.68;;
46407;SDS011;32110;45.724;21.276;2023-05-10T02:40:01;6.47;;;4.45;;
46407;SDS011;32110;45.724;21.276;2023-05-10T02:42:29;9.40;;;4.60;;
46407;SDS011;32110;45.724;21.276;2023-05-10T02:44:59;7.22;;;4.22;;
46407;SDS011;32110;45.724;21.276;2023-05-10T02:47:25;7.80;;;4.72;;
46407;SDS011;32110;45.724;21.276;2023-05-10T02:49:50;8.30;;;4.22;;
46407;SDS011;32110;45.724;21.276;2023-05-10T02:52:16;6.80;;;4.80;;
46407;SDS011;32110;45.724;21.276;2023-05-10T02:54:44;7.57;;;4.38;;
46407;SDS011;32110;45.724;21.276;2023-05-10T02:57:10;7.45;;;4.30;;
46407;SDS011;32110;45.724;21.276;2023-05-10T02:59:36;7.38;;;3.85;;
46407;SDS011;32110;45.724;21.276;2023-05-10T03:02:02;6.47;;;4.20;;
46407;SDS011;32110;45.724;21.276;2023-05-10T03:04:28;7.85;;;4.45;;
46407;SDS011;32110;45.724;21.276;2023-05-10T03:06:53;6.73;;;3.90;;
46407;SDS011;32110;45.724;21.276;2023-05-10T03:09:18;8.82;;;4.20;;
46407;SDS011;32110;45.724;21.276;2023-05-10T03:14:42;9.05;;;4.78;;
46407;SDS011;32110;45.724;21.276;2023-05-10T03:17:14;8.27;;;4.43;;
46407;SDS011;32110;45.724;21.276;2023-05-10T03:19:46;8.52;;;4.22;;
46407;SDS011;32110;45.724;21.276;2023-05-10T03:22:12;10.10;;;4.32;;
46407;SDS011;32110;45.724;21.276;2023-05-10T03:24:41;10.30;;;4.18;;
46407;SDS011;32110;45.724;21.276;2023-05-10T03:27:07;7.40;;;4.38;;
46407;SDS011;32110;45.724;21.276;2023-05-10T03:29:32;10.60;;;4.80;;
46407;SDS011;32110;45.724;21.276;2023-05-10T03:31:58;10.23;;;4.75;;
46407;SDS011;32110;45.724;21.276;2023-05-10T03:34:24;9.05;;;4.32;;
46407;SDS011;32110;45.724;21.276;2023-05-10T03:36:50;7.95;;;4.47;;
46407;SDS011;32110;45.724;21.276;2023-05-10T03:39:15;6.73;;;4.60;;
46407;SDS011;32110;45.724;21.276;2023-05-10T03:41:40;9.37;;;4.40;;
46407;SDS011;32110;45.724;21.276;2023-05-10T03:44:06;6.68;;;4.53;;
46407;SDS011;32110;45.724;21.276;2023-05-10T03:46:31;8.88;;;5.05;;
46407;SDS011;32110;45.724;21.276;2023-05-10T03:48:56;7.82;;;4.60;;
46407;SDS011;32110;45.724;21.276;2023-05-10T03:51:22;8.03;;;4.50;;
46407;SDS011;32110;45.724;21.276;2023-05-10T03:53:47;6.18;;;4.32;;
46407;SDS011;32110;45.724;21.276;2023-05-10T03:56:12;10.60;;;4.00;;
46407;SDS011;32110;45.724;21.276;2023-05-10T03:58:37;5.90;;;3.87;;
46407;SDS011;32110;45.724;21.276;2023-05-10T04:01:03;6.87;;;4.23;;
46407;SDS011;32110;45.724;21.276;2023-05-10T04:03:28;8.40;;;4.05;;
46407;SDS011;32110;45.724;21.276;2023-05-10T04:06:00;9.20;;;4.20;;
46407;SDS011;32110;45.724;21.276;2023-05-10T04:08:25;11.50;;;4.38;;
46407;SDS011;32110;45.724;21.276;2023-05-10T04:10:51;6.47;;;3.97;;
46407;SDS011;32110;45.724;21.276;2023-05-10T04:13:16;7.13;;;4.63;;
46407;SDS011;32110;45.724;21.276;2023-05-10T04:15:41;6.67;;;3.77;;
46407;SDS011;32110;45.724;21.276;2023-05-10T04:18:08;9.95;;;4.53;;
46407;SDS011;32110;45.724;21.276;2023-05-10T04:20:33;9.60;;;4.50;;
46407;SDS011;32110;45.724;21.276;2023-05-10T04:22:58;14.02;;;4.40;;
46407;SDS011;32110;45.724;21.276;2023-05-10T04:25:24;7.87;;;4.10;;
46407;SDS011;32110;45.724;21.276;2023-05-10T04:27:49;6.67;;;4.23;;
46407;SDS011;32110;45.724;21.276;2023-05-10T04:30:14;7.60;;;4.33;;
46407;SDS011;32110;45.724;21.276;2023-05-10T04:32:39;7.53;;;4.43;;
46407;SDS011;32110;45.724;21.276;2023-05-10T04:35:05;11.40;;;4.43;;
46407;SDS011;32110;45.724;21.276;2023-05-10T04:37:30;12.40;;;4.60;;
46407;SDS011;32110;45.724;21.276;2023-05-10T04:39:55;8.27;;;4.30;;
46407;SDS011;32110;45.724;21.276;2023-05-10T04:42:21;6.70;;;4.38;;
46407;SDS011;32110;45.724;21.276;2023-05-10T04:44:46;13.10;;;4.90;;
46407;SDS011;32110;45.724;21.276;2023-05-10T04:47:11;9.23;;;4.97;;
46407;SDS011;32110;45.724;21.276;2023-05-10T04:49:38;7.57;;;4.32;;
46407;SDS011;32110;45.724;21.276;2023-05-10T04:52:03;11.27;;;4.43;;
46407;SDS011;32110;45.724;21.276;2023-05-10T04:54:29;8.70;;;4.75;;
46407;SDS011;32110;45.724;21.276;2023-05-10T04:56:54;8.80;;;5.00;;
46407;SDS011;32110;45.724;21.276;2023-05-10T04:59:19;11.25;;;4.63;;
46407;SDS011;32110;45.724;21.276;2023-05-10T05:01:44;12.27;;;4.68;;
46407;SDS011;32110;45.724;21.276;2023-05-10T05:04:10;13.48;;;5.38;;
46407;SDS011;32110;45.724;21.276;2023-05-10T05:06:35;9.80;;;5.32;;
46407;SDS011;32110;45.724;21.276;2023-05-10T05:09:01;9.60;;;5.05;;
46407;SDS011;32110;45.724;21.276;2023-05-10T05:11:26;7.38;;;4.97;;
46407;SDS011;32110;45.724;21.276;2023-05-10T05:13:52;9.02;;;4.95;;
46407;SDS011;32110;45.724;21.276;2023-05-10T05:16:17;8.98;;;4.28;;
46407;SDS011;32110;45.724;21.276;2023-05-10T05:18:42;10.80;;;5.05;;
46407;SDS011;32110;45.724;21.276;2023-05-10T05:21:14;9.65;;;4.82;;
46407;SDS011;32110;45.724;21.276;2023-05-10T05:23:43;8.80;;;4.72;;
46407;SDS011;32110;45.724;21.276;2023-05-10T05:26:09;10.35;;;4.80;;
46407;SDS011;32110;45.724;21.276;2023-05-10T05:28:35;11.77;;;5.07;;
46407;SDS011;32110;45.724;21.276;2023-05-10T05:31:05;10.65;;;4.93;;
46407;SDS011;32110;45.724;21.276;2023-05-10T05:33:31;13.73;;;5.03;;
46407;SDS011;32110;45.724;21.276;2023-05-10T05:35:59;11.63;;;4.90;;
46407;SDS011;32110;45.724;21.276;2023-05-10T05:38:25;6.70;;;4.20;;
46407;SDS011;32110;45.724;21.276;2023-05-10T05:40:51;12.00;;;5.20;;
46407;SDS011;32110;45.724;21.276;2023-05-10T05:43:16;8.90;;;4.60;;
46407;SDS011;32110;45.724;21.276;2023-05-10T05:45:41;9.40;;;4.70;;
46407;SDS011;32110;45.724;21.276;2023-05-10T05:48:06;10.90;;;5.40;;
46407;SDS011;32110;45.724;21.276;2023-05-10T05:50:32;6.90;;;4.13;;
46407;SDS011;32110;45.724;21.276;2023-05-10T05:52:57;10.75;;;4.88;;
46407;SDS011;32110;45.724;21.276;2023-05-10T05:55:22;5.90;;;4.57;;
46407;SDS011;32110;45.724;21.276;2023-05-10T05:57:49;9.80;;;4.80;;
46407;SDS011;32110;45.724;21.276;2023-05-10T06:00:14;16.57;;;5.33;;
46407;SDS011;32110;45.724;21.276;2023-05-10T06:02:39;8.30;;;4.80;;
46407;SDS011;32110;45.724;21.276;2023-05-10T06:05:04;6.47;;;4.70;;
46407;SDS011;32110;45.724;21.276;2023-05-10T06:07:30;11.27;;;4.97;;
46407;SDS011;32110;45.724;21.276;2023-05-10T06:09:55;8.67;;;5.00;;
46407;SDS011;32110;45.724;21.276;2023-05-10T06:12:20;8.90;;;5.13;;
46407;SDS011;32110;45.724;21.276;2023-05-10T06:14:45;9.50;;;5.03;;
46407;SDS011;32110;45.724;21.276;2023-05-10T06:17:11;7.40;;;4.50;;
46407;SDS011;32110;45.724;21.276;2023-05-10T06:19:36;5.85;;;5.03;;
46407;SDS011;32110;45.724;21.276;2023-05-10T06:22:01;11.02;;;4.85;;
46407;SDS011;32110;45.724;21.276;2023-05-10T06:24:27;6.70;;;4.95;;
46407;SDS011;32110;45.724;21.276;2023-05-10T06:26:52;7.93;;;5.00;;
46407;SDS011;32110;45.724;21.276;2023-05-10T06:29:17;11.80;;;5.18;;
46407;SDS011;32110;45.724;21.276;2023-05-10T06:31:43;9.20;;;4.40;;
46407;SDS011;32110;45.724;21.276;2023-05-10T06:34:08;9.53;;;4.83;;
46407;SDS011;32110;45.724;21.276;2023-05-10T06:36:34;12.45;;;5.65;;
46407;SDS011;32110;45.724;21.276;2023-05-10T06:38:59;8.65;;;5.15;;
46407;SDS011;32110;45.724;21.276;2023-05-10T06:41:24;8.10;;;4.97;;
46407;SDS011;32110;45.724;21.276;2023-05-10T06:43:49;12.27;;;5.80;;
46407;SDS011;32110;45.724;21.276;2023-05-10T06:46:15;11.37;;;5.10;;
46407;SDS011;32110;45.724;21.276;2023-05-10T06:48:40;8.63;;;5.23;;
46407;SDS011;32110;45.724;21.276;2023-05-10T06:51:05;7.80;;;4.93;;
46407;SDS011;32110;45.724;21.276;2023-05-10T06:53:30;6.63;;;5.33;;
46407;SDS011;32110;45.724;21.276;2023-05-10T06:55:56;7.93;;;5.30;;
46407;SDS011;32110;45.724;21.276;2023-05-10T06:58:21;7.63;;;5.20;;
46407;SDS011;32110;45.724;21.276;2023-05-10T07:00:46;6.93;;;5.00;;
46407;SDS011;32110;45.724;21.276;2023-05-10T07:03:12;9.35;;;5.70;;
46407;SDS011;32110;45.724;21.276;2023-05-10T07:05:37;6.77;;;5.30;;
46407;SDS011;32110;45.724;21.276;2023-05-10T07:08:02;7.30;;;5.23;;
46407;SDS011;32110;45.724;21.276;2023-05-10T07:10:28;8.80;;;5.57;;
46407;SDS011;32110;45.724;21.276;2023-05-10T07:12:53;6.43;;;4.80;;
46407;SDS011;32110;45.724;21.276;2023-05-10T07:15:18;5.70;;;4.37;;
46407;SDS011;32110;45.724;21.276;2023-05-10T07:17:43;16.00;;;4.78;;
46407;SDS011;32110;45.724;21.276;2023-05-10T07:20:09;14.13;;;6.55;;
46407;SDS011;32110;45.724;21.276;2023-05-10T07:22:34;11.35;;;5.78;;
46407;SDS011;32110;45.724;21.276;2023-05-10T07:24:59;8.43;;;5.27;;
46407;SDS011;32110;45.724;21.276;2023-05-10T07:27:25;6.47;;;5.03;;
46407;SDS011;32110;45.724;21.276;2023-05-10T07:29:50;9.70;;;5.47;;
46407;SDS011;32110;45.724;21.276;2023-05-10T07:32:15;6.60;;;5.40;;
46407;SDS011;32110;45.724;21.276;2023-05-10T07:34:41;7.82;;;5.32;;
46407;SDS011;32110;45.724;21.276;2023-05-10T07:37:06;8.25;;;5.68;;
46407;SDS011;32110;45.724;21.276;2023-05-10T07:39:32;6.97;;;4.97;;
46407;SDS011;32110;45.724;21.276;2023-05-10T07:41:57;6.18;;;4.85;;
46407;SDS011;32110;45.724;21.276;2023-05-10T07:44:23;7.80;;;5.00;;
46407;SDS011;32110;45.724;21.276;2023-05-10T07:46:48;10.95;;;5.43;;
46407;SDS011;32110;45.724;21.276;2023-05-10T07:49:13;9.50;;;5.45;;
46407;SDS011;32110;45.724;21.276;2023-05-10T07:51:39;9.83;;;5.40;;
46407;SDS011;32110;45.724;21.276;2023-05-10T07:54:04;8.60;;;4.70;;
46407;SDS011;32110;45.724;21.276;2023-05-10T07:56:30;5.97;;;5.18;;
46407;SDS011;32110;45.724;21.276;2023-05-10T07:58:56;7.80;;;4.47;;
46407;SDS011;32110;45.724;21.276;2023-05-10T08:01:22;9.05;;;5.07;;
46407;SDS011;32110;45.724;21.276;2023-05-10T08:03:48;7.05;;;4.50;;
46407;SDS011;32110;45.724;21.276;2023-05-10T08:06:14;5.95;;;4.88;;
46407;SDS011;32110;45.724;21.276;2023-05-10T08:08:40;7.22;;;4.82;;
46407;SDS011;32110;45.724;21.276;2023-05-10T08:11:05;7.35;;;4.68;;
46407;SDS011;32110;45.724;21.276;2023-05-10T08:13:30;7.57;;;4.90;;
46407;SDS011;32110;45.724;21.276;2023-05-10T08:15:56;9.30;;;5.10;;
46407;SDS011;32110;45.724;21.276;2023-05-10T08:18:21;5.60;;;4.80;;
46407;SDS011;32110;45.724;21.276;2023-05-10T08:20:46;7.13;;;4.47;;
46407;SDS011;32110;45.724;21.276;2023-05-10T08:23:12;6.10;;;4.80;;
46407;SDS011;32110;45.724;21.276;2023-05-10T08:25:37;10.43;;;4.90;;
46407;SDS011;32110;45.724;21.276;2023-05-10T08:28:02;8.80;;;4.73;;
46407;SDS011;32110;45.724;21.276;2023-05-10T08:30:28;12.68;;;4.97;;
46407;SDS011;32110;45.724;21.276;2023-05-10T08:32:53;5.67;;;4.67;;
46407;SDS011;32110;45.724;21.276;2023-05-10T08:35:18;7.67;;;4.63;;
46407;SDS011;32110;45.724;21.276;2023-05-10T08:37:43;7.27;;;4.30;;
46407;SDS011;32110;45.724;21.276;2023-05-10T08:40:09;5.70;;;4.38;;
46407;SDS011;32110;45.724;21.276;2023-05-10T08:42:36;7.60;;;3.90;;
46407;SDS011;32110;45.724;21.276;2023-05-10T08:45:04;4.55;;;3.85;;
46407;SDS011;32110;45.724;21.276;2023-05-10T08:47:29;6.93;;;4.20;;
46407;SDS011;32110;45.724;21.276;2023-05-10T08:49:55;7.57;;;3.50;;
46407;SDS011;32110;45.724;21.276;2023-05-10T08:52:22;3.80;;;3.30;;
46407;SDS011;32110;45.724;21.276;2023-05-10T08:54:48;5.20;;;3.30;;
46407;SDS011;32110;45.724;21.276;2023-05-10T08:57:14;7.60;;;4.40;;
46407;SDS011;32110;45.724;21.276;2023-05-10T08:59:39;4.18;;;3.30;;
46407;SDS011;32110;45.724;21.276;2023-05-10T09:02:05;4.28;;;3.70;;
46407;SDS011;32110;45.724;21.276;2023-05-10T09:04:30;5.32;;;3.83;;
46407;SDS011;32110;45.724;21.276;2023-05-10T09:06:56;6.30;;;3.50;;
46407;SDS011;32110;45.724;21.276;2023-05-10T09:09:21;6.50;;;3.70;;
46407;SDS011;32110;45.724;21.276;2023-05-10T09:11:46;7.95;;;3.80;;
46407;SDS011;32110;45.724;21.276;2023-05-10T09:14:12;4.50;;;3.63;;
46407;SDS011;32110;45.724;21.276;2023-05-10T09:16:37;8.73;;;3.70;;
46407;SDS011;32110;45.724;21.276;2023-05-10T09:19:03;4.63;;;3.00;;
46407;SDS011;32110;45.724;21.276;2023-05-10T09:21:28;4.17;;;3.13;;
46407;SDS011;32110;45.724;21.276;2023-05-10T09:23:54;4.60;;;3.33;;
46407;SDS011;32110;45.724;21.276;2023-05-10T09:26:23;8.82;;;3.38;;
46407;SDS011;32110;45.724;21.276;2023-05-10T09:28:56;4.85;;;3.30;;
46407;SDS011;32110;45.724;21.276;2023-05-10T09:31:22;5.00;;;3.30;;
46407;SDS011;32110;45.724;21.276;2023-05-10T09:33:48;5.90;;;2.97;;
46407;SDS011;32110;45.724;21.276;2023-05-10T09:36:14;5.47;;;3.25;;
46407;SDS011;32110;45.724;21.276;2023-05-10T09:38:49;5.78;;;3.38;;
46407;SDS011;32110;45.724;21.276;2023-05-10T09:41:17;4.85;;;2.80;;
46407;SDS011;32110;45.724;21.276;2023-05-10T09:43:42;4.85;;;3.00;;
46407;SDS011;32110;45.724;21.276;2023-05-10T09:46:10;5.47;;;3.07;;
46407;SDS011;32110;45.724;21.276;2023-05-10T09:48:45;8.07;;;3.28;;
46407;SDS011;32110;45.724;21.276;2023-05-10T09:51:21;6.05;;;3.08;;
46407;SDS011;32110;45.724;21.276;2023-05-10T09:53:47;3.95;;;2.67;;
46407;SDS011;32110;45.724;21.276;2023-05-10T09:56:12;5.82;;;3.20;;
46407;SDS011;32110;45.724;21.276;2023-05-10T09:58:38;4.53;;;3.15;;
46407;SDS011;32110;45.724;21.276;2023-05-10T10:01:03;5.90;;;3.40;;
46407;SDS011;32110;45.724;21.276;2023-05-10T10:03:29;5.93;;;3.40;;
46407;SDS011;32110;45.724;21.276;2023-05-10T10:05:55;6.80;;;3.33;;
46407;SDS011;32110;45.724;21.276;2023-05-10T10:08:20;4.70;;;3.33;;
46407;SDS011;32110;45.724;21.276;2023-05-10T10:10:46;4.75;;;3.30;;
46407;SDS011;32110;45.724;21.276;2023-05-10T10:13:11;4.05;;;3.10;;
46407;SDS011;32110;45.724;21.276;2023-05-10T10:15:38;7.15;;;2.92;;
46407;SDS011;32110;45.724;21.276;2023-05-10T10:18:03;8.05;;;2.97;;
46407;SDS011;32110;45.724;21.276;2023-05-10T10:20:30;3.80;;;2.47;;
46407;SDS011;32110;45.724;21.276;2023-05-10T10:22:55;4.43;;;2.90;;
46407;SDS011;32110;45.724;21.276;2023-05-10T10:25:21;5.70;;;2.50;;
46407;SDS011;32110;45.724;21.276;2023-05-10T10:30:24;4.30;;;2.67;;
46407;SDS011;32110;45.724;21.276;2023-05-10T10:33:10;3.00;;;2.63;;
46407;SDS011;32110;45.724;21.276;2023-05-10T10:35:38;4.53;;;2.63;;
46407;SDS011;32110;45.724;21.276;2023-05-10T10:38:03;3.70;;;2.65;;
46407;SDS011;32110;45.724;21.276;2023-05-10T10:40:30;3.47;;;2.58;;
46407;SDS011;32110;45.724;21.276;2023-05-10T10:42:56;4.20;;;2.50;;
46407;SDS011;32110;45.724;21.276;2023-05-10T10:45:23;6.40;;;2.38;;
46407;SDS011;32110;45.724;21.276;2023-05-10T10:47:48;4.07;;;2.45;;
46407;SDS011;32110;45.724;21.276;2023-05-10T10:50:18;4.60;;;2.60;;
46407;SDS011;32110;45.724;21.276;2023-05-10T10:52:43;3.95;;;2.63;;
46407;SDS011;32110;45.724;21.276;2023-05-10T10:55:14;4.43;;;2.70;;
46407;SDS011;32110;45.724;21.276;2023-05-10T11:00:24;3.50;;;2.20;;
46407;SDS011;32110;45.724;21.276;2023-05-10T11:07:53;5.22;;;2.70;;
46407;SDS011;32110;45.724;21.276;2023-05-10T11:10:20;8.77;;;2.40;;
46407;SDS011;32110;45.724;21.276;2023-05-10T11:13:02;4.10;;;2.40;;
46407;SDS011;32110;45.724;21.276;2023-05-10T11:15:31;4.45;;;2.20;;
46407;SDS011;32110;45.724;21.276;2023-05-10T11:17:57;3.97;;;2.17;;
46407;SDS011;32110;45.724;21.276;2023-05-10T11:20:22;2.80;;;2.10;;
46407;SDS011;32110;45.724;21.276;2023-05-10T11:22:53;2.75;;;2.20;;
46407;SDS011;32110;45.724;21.276;2023-05-10T11:25:19;4.68;;;2.13;;
46407;SDS011;32110;45.724;21.276;2023-05-10T11:27:47;3.10;;;2.15;;
46407;SDS011;32110;45.724;21.276;2023-05-10T11:30:13;3.47;;;2.10;;
46407;SDS011;32110;45.724;21.276;2023-05-10T11:32:40;5.85;;;1.77;;
46407;SDS011;32110;45.724;21.276;2023-05-10T11:35:06;1.88;;;1.70;;
46407;SDS011;32110;45.724;21.276;2023-05-10T11:37:32;2.83;;;2.25;;
46407;SDS011;32110;45.724;21.276;2023-05-10T11:39:59;2.78;;;1.88;;
46407;SDS011;32110;45.724;21.276;2023-05-10T11:42:24;2.10;;;1.90;;
46407;SDS011;32110;45.724;21.276;2023-05-10T11:44:50;3.13;;;2.00;;
46407;SDS011;32110;45.724;21.276;2023-05-10T11:47:15;4.13;;;1.90;;
46407;SDS011;32110;45.724;21.276;2023-05-10T11:49:44;2.47;;;2.10;;
46407;SDS011;32110;45.724;21.276;2023-05-10T11:52:09;2.92;;;1.90;;
46407;SDS011;32110;45.724;21.276;2023-05-10T11:54:44;3.43;;;1.80;;
46407;SDS011;32110;45.724;21.276;2023-05-10T11:57:11;5.25;;;2.10;;
46407;SDS011;32110;45.724;21.276;2023-05-10T11:59:36;4.93;;;2.00;;
46407;SDS011;32110;45.724;21.276;2023-05-10T12:02:02;4.35;;;1.70;;
46407;SDS011;32110;45.724;21.276;2023-05-10T12:04:28;2.60;;;1.80;;
46407;SDS011;32110;45.724;21.276;2023-05-10T12:06:54;2.60;;;1.50;;
46407;SDS011;32110;45.724;21.276;2023-05-10T12:09:19;2.70;;;1.67;;
46407;SDS011;32110;45.724;21.276;2023-05-10T12:11:45;3.78;;;2.00;;
46407;SDS011;32110;45.724;21.276;2023-05-10T12:14:10;5.20;;;1.98;;
46407;SDS011;32110;45.724;21.276;2023-05-10T12:16:36;4.40;;;1.90;;
46407;SDS011;32110;45.724;21.276;2023-05-10T12:19:01;2.10;;;1.83;;
46407;SDS011;32110;45.724;21.276;2023-05-10T12:21:27;5.60;;;1.85;;
46407;SDS011;32110;45.724;21.276;2023-05-10T12:23:53;3.75;;;2.03;;
46407;SDS011;32110;45.724;21.276;2023-05-10T12:26:23;3.20;;;1.65;;
46407;SDS011;32110;45.724;21.276;2023-05-10T12:28:49;5.50;;;1.75;;
46407;SDS011;32110;45.724;21.276;2023-05-10T12:31:15;2.72;;;1.70;;
46407;SDS011;32110;45.724;21.276;2023-05-10T12:33:41;3.20;;;1.77;;
46407;SDS011;32110;45.724;21.276;2023-05-10T12:36:08;2.15;;;1.70;;
46407;SDS011;32110;45.724;21.276;2023-05-10T12:41:07;3.42;;;1.85;;
46407;SDS011;32110;45.724;21.276;2023-05-10T12:43:32;4.63;;;2.17;;
46407;SDS011;32110;45.724;21.276;2023-05-10T12:46:04;5.03;;;1.90;;
46407;SDS011;32110;45.724;21.276;2023-05-10T12:48:30;1.88;;;1.70;;
46407;SDS011;32110;45.724;21.276;2023-05-10T12:50:56;4.32;;;1.80;;
46407;SDS011;32110;45.724;21.276;2023-05-10T12:53:21;2.30;;;1.67;;
46407;SDS011;32110;45.724;21.276;2023-05-10T12:55:47;1.73;;;1.40;;
46407;SDS011;32110;45.724;21.276;2023-05-10T12:58:12;4.18;;;1.55;;
46407;SDS011;32110;45.724;21.276;2023-05-10T13:00:37;1.87;;;1.60;;
46407;SDS011;32110;45.724;21.276;2023-05-10T13:03:03;4.05;;;1.60;;
46407;SDS011;32110;45.724;21.276;2023-05-10T13:05:30;1.70;;;1.40;;
46407;SDS011;32110;45.724;21.276;2023-05-10T13:07:55;2.58;;;1.45;;
46407;SDS011;32110;45.724;21.276;2023-05-10T13:10:21;5.43;;;1.77;;
46407;SDS011;32110;45.724;21.276;2023-05-10T13:12:48;5.68;;;1.50;;
46407;SDS011;32110;45.724;21.276;2023-05-10T13:15:13;1.88;;;1.60;;
46407;SDS011;32110;45.724;21.276;2023-05-10T13:17:39;5.18;;;1.60;;
46407;SDS011;32110;45.724;21.276;2023-05-10T13:20:05;3.65;;;1.58;;
46407;SDS011;32110;45.724;21.276;2023-05-10T13:22:31;6.88;;;1.65;;
46407;SDS011;32110;45.724;21.276;2023-05-10T13:24:56;3.47;;;1.60;;
46407;SDS011;32110;45.724;21.276;2023-05-10T13:27:22;2.57;;;1.47;;
46407;SDS011;32110;45.724;21.276;2023-05-10T13:29:47;3.80;;;1.70;;
46407;SDS011;32110;45.724;21.276;2023-05-10T13:32:13;3.42;;;1.52;;
46407;SDS011;32110;45.724;21.276;2023-05-10T13:34:38;4.47;;;1.70;;
46407;SDS011;32110;45.724;21.276;2023-05-10T13:37:03;5.80;;;2.40;;
46407;SDS011;32110;45.724;21.276;2023-05-10T13:39:28;2.78;;;1.83;;
46407;SDS011;32110;45.724;21.276;2023-05-10T13:44:23;3.00;;;1.77;;
46407;SDS011;32110;45.724;21.276;2023-05-10T13:46:48;5.22;;;1.60;;
46407;SDS011;32110;45.724;21.276;2023-05-10T13:49:14;1.70;;;1.60;;
46407;SDS011;32110;45.724;21.276;2023-05-10T13:51:39;5.57;;;1.50;;
46407;SDS011;32110;45.724;21.276;2023-05-10T13:54:05;1.65;;;1.38;;
46407;SDS011;32110;45.724;21.276;2023-05-10T13:56:30;2.30;;;1.40;;
46407;SDS011;32110;45.724;21.276;2023-05-10T13:58:56;7.45;;;1.55;;
46407;SDS011;32110;45.724;21.276;2023-05-10T14:01:23;2.10;;;1.55;;
46407;SDS011;32110;45.724;21.276;2023-05-10T14:03:48;3.30;;;1.52;;
46407;SDS011;32110;45.724;21.276;2023-05-10T14:06:14;2.50;;;1.80;;
46407;SDS011;32110;45.724;21.276;2023-05-10T14:08:39;3.13;;;1.63;;
46407;SDS011;32110;45.724;21.276;2023-05-10T14:11:05;5.88;;;1.75;;
46407;SDS011;32110;45.724;21.276;2023-05-10T14:13:30;2.60;;;1.40;;
46407;SDS011;32110;45.724;21.276;2023-05-10T14:15:55;7.32;;;1.60;;
46407;SDS011;32110;45.724;21.276;2023-05-10T14:18:21;2.50;;;1.92;;
46407;SDS011;32110;45.724;21.276;2023-05-10T14:20:46;3.90;;;1.55;;
46407;SDS011;32110;45.724;21.276;2023-05-10T14:23:12;2.42;;;1.70;;
46407;SDS011;32110;45.724;21.276;2023-05-10T14:25:37;4.18;;;1.83;;
46407;SDS011;32110;45.724;21.276;2023-05-10T14:28:05;3.05;;;2.58;;
46407;SDS011;32110;45.724;21.276;2023-05-10T14:30:31;1.90;;;1.50;;
46407;SDS011;32110;45.724;21.276;2023-05-10T14:32:57;3.30;;;1.70;;
46407;SDS011;32110;45.724;21.276;2023-05-10T14:35:23;3.67;;;1.73;;
46407;SDS011;32110;45.724;21.276;2023-05-10T14:37:48;4.03;;;1.67;;
46407;SDS011;32110;45.724;21.276;2023-05-10T14:40:14;4.45;;;1.92;;
46407;SDS011;32110;45.724;21.276;2023-05-10T14:42:40;4.93;;;2.25;;
46407;SDS011;32110;45.724;21.276;2023-05-10T14:45:05;2.03;;;1.50;;
46407;SDS011;32110;45.724;21.276;2023-05-10T14:47:31;4.05;;;1.70;;
46407;SDS011;32110;45.724;21.276;2023-05-10T14:49:56;2.30;;;1.65;;
46407;SDS011;32110;45.724;21.276;2023-05-10T14:52:21;4.20;;;1.80;;
46407;SDS011;32110;45.724;21.276;2023-05-10T14:54:47;4.32;;;1.90;;
46407;SDS011;32110;45.724;21.276;2023-05-10T14:57:13;2.17;;;1.75;;